Albany, Georgia
Current Conditions -  °F | °C
As of 7:53 AM on Saturday 01 Nov 2014 (Local Time) from KABY Reporting Station
Clear Clear  
Wind Chill:   Ceiling: Unl
Heat Index:   Visibility: 10mi
Dew Point: -3°   Wind: 12mph
Humidity: 58%   Direction: 290°WNW
Pressure: 30.07"   Gusts: 20mph
Location:  31.58°N, 84.15°W
Report Text: KABY 011153Z 29010G17KT 10SM CLR 04/M03 A3007 RMK AO2 SLP182 6//// 7//// T00441033 10106 20039 53004 PNO
Loading
Personal Weather Stations






























Interactive Weather Map
Tropical Storm Tracking
New forecast layout! Learn more

10-Day Weather Forecast

Advertisements
Track Severe Weather on mobile